Terminal Aerodrome Forecast
Issued by NWS

Home | Current Version | Previous Version | Text Only | Print | Product List | Glossary On
Versions: 1 2 3 4 5 6 7 8 9 10 11 12 13 14 15 16 17 18 19 20 21 22 23 24 25 26 27 28 29 30 31
000
FTUS43 KGLD 271123
TAFMCK
TAF
KMCK 271123Z 2712/2812 12006KT P6SM FEW070 BKN110
     FM271300 10007KT P6SM -SHRA OVC090
     FM271500 11005KT P6SM VCTS OVC090CB
     FM280500 12005KT 6SM TSRA BR OVC060CB
     FM281100 24005KT P6SM VCTS BKN060CB OVC200=

USA.gov is the U.S. government's official web portal to all federal, state and local government web resources and services.